createdAt,value
2022-11-16T00:01:02.277Z,100.00
2022-11-16T00:03:48.763Z,100.00
2022-11-16T00:06:34.135Z,100.00
2022-11-16T00:09:18.970Z,100.00
2022-11-16T00:12:06.174Z,100.00
2022-11-16T00:14:51.065Z,100.00
2022-11-16T00:17:35.930Z,100.00
2022-11-16T00:20:20.873Z,100.00
2022-11-16T00:23:05.643Z,100.00
2022-11-16T00:25:51.209Z,100.00
2022-11-16T00:28:36.599Z,100.00
2022-11-16T00:31:22.621Z,100.00
2022-11-16T00:34:07.826Z,100.00
2022-11-16T00:36:52.688Z,100.00
2022-11-16T00:39:37.555Z,100.00
2022-11-16T00:42:22.479Z,100.00
2022-11-16T00:45:08.191Z,100.00
2022-11-16T00:47:59.193Z,100.00
2022-11-16T00:50:46.070Z,100.00
2022-11-16T00:53:30.955Z,100.00
2022-11-16T00:56:16.032Z,100.00
2022-11-16T00:59:00.910Z,100.00
2022-11-16T01:01:46.176Z,100.00
2022-11-16T01:04:31.459Z,100.00
2022-11-16T01:07:16.523Z,100.00
2022-11-16T01:10:04.856Z,100.00
2022-11-16T01:12:51.225Z,100.00
2022-11-16T01:15:36.396Z,100.00
2022-11-16T01:18:21.246Z,100.00
2022-11-16T01:21:06.977Z,100.00
2022-11-16T01:23:52.344Z,100.00
2022-11-16T01:26:37.525Z,100.00
2022-11-16T01:29:28.128Z,100.00
2022-11-16T01:32:13.394Z,100.00
2022-11-16T01:34:58.804Z,100.00
2022-11-16T01:37:44.548Z,100.00
2022-11-16T01:40:29.600Z,100.00
2022-11-16T01:43:24.317Z,100.00
2022-11-16T01:46:09.702Z,100.00
2022-11-16T01:49:02.801Z,100.00
2022-11-16T01:51:55.244Z,100.00
2022-11-16T01:54:43.802Z,100.00
2022-11-16T01:57:33.777Z,100.00
2022-11-16T02:00:19.055Z,100.00
2022-11-16T02:03:03.812Z,100.00
2022-11-16T02:05:54.708Z,100.00
2022-11-16T02:09:17.794Z,100.00
2022-11-16T02:12:36.918Z,100.00
2022-11-16T02:15:29.256Z,100.00
2022-11-16T02:18:29.149Z,100.00
2022-11-16T02:21:26.147Z,100.00
2022-11-16T02:24:17.116Z,100.00
2022-11-16T02:27:23.326Z,100.00
2022-11-16T02:30:08.437Z,100.00
2022-11-16T02:33:01.466Z,100.00
2022-11-16T02:35:53.122Z,100.00
2022-11-16T02:38:42.788Z,100.00
2022-11-16T02:41:31.841Z,100.00
2022-11-16T02:44:25.718Z,100.00
2022-11-16T02:47:16.942Z,100.00
2022-11-16T02:50:09.640Z,100.00
2022-11-16T02:52:54.573Z,100.00
2022-11-16T02:55:39.741Z,100.00
2022-11-16T02:58:26.120Z,100.00
2022-11-16T03:01:29.295Z,100.00
2022-11-16T03:04:31.268Z,100.00
2022-11-16T03:07:21.321Z,100.00
2022-11-16T03:10:07.332Z,100.00
2022-11-16T03:12:52.789Z,100.00
2022-11-16T03:15:41.395Z,100.00
2022-11-16T03:18:28.247Z,100.00
2022-11-16T03:21:24.850Z,100.00
2022-11-16T03:24:10.379Z,100.00
2022-11-16T03:27:04.297Z,100.00
2022-11-16T03:30:23.790Z,100.00
2022-11-16T03:33:27.491Z,100.00
2022-11-16T03:36:31.564Z,100.00
2022-11-16T03:39:25.278Z,100.00
2022-11-16T03:42:13.076Z,100.00
2022-11-16T03:44:58.415Z,100.00
2022-11-16T03:47:43.422Z,100.00
2022-11-16T03:50:29.565Z,100.00
2022-11-16T03:53:14.400Z,100.00
2022-11-16T03:55:59.286Z,100.00
2022-11-16T03:58:44.192Z,100.00
2022-11-16T04:01:29.211Z,100.00
2022-11-16T04:04:14.648Z,100.00
2022-11-16T04:06:59.959Z,100.00
2022-11-16T04:09:44.856Z,100.00
2022-11-16T04:12:29.912Z,100.00
2022-11-16T04:15:15.184Z,100.00
2022-11-16T04:18:00.044Z,100.00
2022-11-16T04:20:45.351Z,100.00
2022-11-16T04:23:30.328Z,100.00
2022-11-16T04:26:15.434Z,100.00
2022-11-16T04:29:00.561Z,100.00
2022-11-16T04:31:45.375Z,100.00
2022-11-16T04:34:30.478Z,100.00
2022-11-16T04:37:18.015Z,100.00
2022-11-16T04:40:04.289Z,100.00
2022-11-16T04:42:52.523Z,100.00
2022-11-16T04:45:37.878Z,100.00
2022-11-16T04:48:22.963Z,100.00
2022-11-16T04:51:08.345Z,100.00
2022-11-16T04:53:53.207Z,100.00
2022-11-16T04:56:38.281Z,100.00
2022-11-16T04:59:23.095Z,100.00
2022-11-16T05:02:08.822Z,100.00
2022-11-16T05:04:54.208Z,100.00
2022-11-16T05:07:39.818Z,100.00
2022-11-16T05:10:25.154Z,100.00
2022-11-16T05:13:09.960Z,100.00
2022-11-16T05:15:54.794Z,100.00
2022-11-16T05:18:39.529Z,100.00
2022-11-16T05:21:24.941Z,100.00
2022-11-16T05:24:10.027Z,100.00
2022-11-16T05:26:55.883Z,100.00
2022-11-16T05:29:41.119Z,100.00
2022-11-16T05:32:27.622Z,100.00
2022-11-16T05:35:12.883Z,100.00
2022-11-16T05:37:58.227Z,100.00
2022-11-16T05:40:43.562Z,100.00
2022-11-16T05:43:29.722Z,100.00
2022-11-16T05:46:14.529Z,100.00
2022-11-16T05:48:59.669Z,100.00
2022-11-16T05:51:46.195Z,100.00
2022-11-16T05:54:31.275Z,100.00
2022-11-16T05:57:16.148Z,100.00
2022-11-16T06:00:01.091Z,100.00
2022-11-16T06:02:46.040Z,100.00
2022-11-16T06:05:34.083Z,100.00
2022-11-16T06:08:21.158Z,100.00
2022-11-16T06:11:09.049Z,100.00
2022-11-16T06:13:54.612Z,100.00
2022-11-16T06:16:39.872Z,100.00
2022-11-16T06:19:29.599Z,100.00
2022-11-16T06:22:17.305Z,100.00
2022-11-16T06:25:02.850Z,100.00
2022-11-16T06:27:48.117Z,100.00
2022-11-16T06:30:33.626Z,100.00
2022-11-16T06:33:19.392Z,100.00
2022-11-16T06:36:04.730Z,100.00
2022-11-16T06:38:49.817Z,100.00
2022-11-16T06:41:40.185Z,100.00
2022-11-16T06:44:26.498Z,100.00
2022-11-16T06:47:11.729Z,100.00
2022-11-16T06:49:57.213Z,100.00
2022-11-16T06:52:42.458Z,100.00
2022-11-16T06:55:28.693Z,100.00
2022-11-16T06:58:14.137Z,100.00
2022-11-16T07:01:06.346Z,100.00
2022-11-16T07:03:51.546Z,100.00
2022-11-16T07:06:36.941Z,100.00
2022-11-16T07:09:21.713Z,100.00
2022-11-16T07:12:07.037Z,100.00
2022-11-16T07:14:51.934Z,100.00
2022-11-16T07:17:37.230Z,100.00
2022-11-16T07:20:22.248Z,100.00
2022-11-16T07:23:11.364Z,100.00
2022-11-16T07:26:03.733Z,100.00
2022-11-16T07:28:49.171Z,100.00
2022-11-16T07:31:34.173Z,100.00
2022-11-16T07:34:18.889Z,100.00
2022-11-16T07:37:03.779Z,100.00
2022-11-16T07:39:49.140Z,100.00
2022-11-16T07:42:34.062Z,100.00
2022-11-16T07:45:18.896Z,100.00
2022-11-16T07:48:04.823Z,100.00
2022-11-16T07:50:50.001Z,100.00
2022-11-16T07:53:35.938Z,100.00
2022-11-16T07:56:21.898Z,100.00
2022-11-16T07:59:07.236Z,100.00
2022-11-16T08:01:52.579Z,100.00
2022-11-16T08:04:37.834Z,100.00
2022-11-16T08:07:22.853Z,100.00
2022-11-16T08:10:08.470Z,100.00
2022-11-16T08:12:53.666Z,100.00
2022-11-16T08:15:38.469Z,100.00
2022-11-16T08:20:19.595Z,100.00
2022-11-16T08:23:05.023Z,100.00
2022-11-16T08:25:49.914Z,100.00
2022-11-16T08:28:37.153Z,100.00
2022-11-16T08:31:27.961Z,100.00
2022-11-16T08:34:13.209Z,100.00
2022-11-16T08:36:58.042Z,100.00
2022-11-16T08:39:42.931Z,100.00
2022-11-16T08:42:27.880Z,100.00
2022-11-16T08:45:12.752Z,100.00
2022-11-16T08:48:03.590Z,100.00
2022-11-16T08:51:15.873Z,100.00
2022-11-16T08:53:58.403Z,100.00
2022-11-16T08:56:43.778Z,100.00
2022-11-16T08:59:29.260Z,100.00
2022-11-16T09:02:14.279Z,100.00
2022-11-16T09:04:59.785Z,100.00
2022-11-16T09:07:45.148Z,100.00
2022-11-16T09:10:30.585Z,100.00
2022-11-16T09:13:16.674Z,100.00
2022-11-16T09:16:03.848Z,100.00
2022-11-16T09:18:51.039Z,100.00
2022-11-16T09:21:37.149Z,100.00
2022-11-16T09:24:22.526Z,100.00
2022-11-16T09:27:08.247Z,100.00
2022-11-16T09:29:53.451Z,100.00
2022-11-16T09:32:38.867Z,100.00
2022-11-16T09:35:23.948Z,100.00
2022-11-16T09:38:10.057Z,100.00
2022-11-16T09:40:56.358Z,100.00
2022-11-16T09:44:00.023Z,100.00
2022-11-16T09:46:49.537Z,100.00
2022-11-16T09:49:42.343Z,100.00
2022-11-16T09:52:33.529Z,100.00
2022-11-16T09:55:30.541Z,100.00
2022-11-16T09:58:24.922Z,100.00
2022-11-16T10:01:31.044Z,100.00
2022-11-16T10:04:41.818Z,100.00
2022-11-16T10:07:30.382Z,100.00
2022-11-16T10:10:18.806Z,100.00
2022-11-16T10:13:17.254Z,100.00
2022-11-16T10:16:27.483Z,100.00
2022-11-16T10:19:37.166Z,100.00
2022-11-16T10:22:34.948Z,100.00
2022-11-16T10:25:29.339Z,100.00
2022-11-16T10:28:20.627Z,100.00
2022-11-16T10:31:22.096Z,100.00
2022-11-16T10:34:17.240Z,100.00
2022-11-16T10:37:04.737Z,100.00
2022-11-16T10:39:51.825Z,100.00
2022-11-16T10:42:37.626Z,100.00
2022-11-16T10:45:28.975Z,100.00
2022-11-16T10:48:49.627Z,100.00
2022-11-16T10:51:34.953Z,100.00
2022-11-16T10:54:20.348Z,100.00
2022-11-16T10:57:07.638Z,100.00
2022-11-16T10:59:54.254Z,100.00
2022-11-16T11:02:48.302Z,100.00
2022-11-16T11:05:35.557Z,100.00
2022-11-16T11:08:29.884Z,100.00
2022-11-16T11:11:21.839Z,100.00
2022-11-16T11:14:11.594Z,100.00
2022-11-16T11:17:10.691Z,100.00
2022-11-16T11:20:03.069Z,100.00
2022-11-16T11:22:55.042Z,100.00
2022-11-16T11:26:00.591Z,100.00
2022-11-16T11:28:49.366Z,100.00
2022-11-16T11:31:42.465Z,100.00
2022-11-16T11:34:30.177Z,100.00
2022-11-16T11:37:20.079Z,100.00
2022-11-16T11:40:29.253Z,100.00
2022-11-16T11:43:25.122Z,100.00
2022-11-16T11:46:20.656Z,100.00
2022-11-16T11:49:38.280Z,98.51
2022-11-16T11:52:42.201Z,99.52
2022-11-16T11:55:27.681Z,96.67
2022-11-16T11:58:18.607Z,94.65
2022-11-16T12:01:19.448Z,94.20
2022-11-16T12:04:34.957Z,92.99
2022-11-16T12:07:29.359Z,92.63
2022-11-16T12:10:39.466Z,92.51
2022-11-16T12:13:42.980Z,91.85
2022-11-16T12:16:53.487Z,92.34
2022-11-16T12:19:48.867Z,91.85
2022-11-16T12:23:03.789Z,92.13
2022-11-16T12:26:05.078Z,90.86
2022-11-16T12:28:59.391Z,89.79
2022-11-16T12:32:12.800Z,90.24
2022-11-16T12:35:32.384Z,89.21
2022-11-16T12:38:39.358Z,89.48
2022-11-16T12:41:49.560Z,87.61
2022-11-16T12:44:34.432Z,88.77
2022-11-16T12:47:41.014Z,88.62
2022-11-16T12:50:52.622Z,88.24
2022-11-16T12:54:06.462Z,87.62
2022-11-16T12:56:58.604Z,87.61
2022-11-16T12:59:50.090Z,88.25
2022-11-16T13:02:53.717Z,85.56
2022-11-16T13:05:42.189Z,84.92
2022-11-16T13:08:49.409Z,85.34
2022-11-16T13:11:42.322Z,83.78
2022-11-16T13:14:37.344Z,82.68
2022-11-16T13:17:33.198Z,81.91
2022-11-16T13:20:54.087Z,82.36
2022-11-16T13:24:12.663Z,81.69
2022-11-16T13:27:30.596Z,81.17
2022-11-16T13:30:37.930Z,81.48
2022-11-16T13:33:43.053Z,81.40
2022-11-16T13:36:38.163Z,79.97
2022-11-16T13:40:02.275Z,80.03
2022-11-16T13:43:16.470Z,79.68
2022-11-16T13:46:01.686Z,78.97
2022-11-16T13:48:47.626Z,79.36
2022-11-16T13:51:33.131Z,80.11
2022-11-16T13:54:45.663Z,77.52
2022-11-16T13:57:34.335Z,78.16
2022-11-16T14:00:26.641Z,77.88
2022-11-16T14:03:11.912Z,77.54
2022-11-16T14:05:56.884Z,78.71
2022-11-16T14:09:00.477Z,78.30
2022-11-16T14:11:45.630Z,78.02
2022-11-16T14:15:03.898Z,75.54
2022-11-16T14:18:02.508Z,72.71
2022-11-16T14:21:02.630Z,71.47
2022-11-16T14:23:53.889Z,69.72
2022-11-16T14:26:44.880Z,68.67
2022-11-16T14:30:31.451Z,68.58
2022-11-16T14:33:30.712Z,69.80
2022-11-16T14:36:15.765Z,69.32
2022-11-16T14:39:15.872Z,68.54
2022-11-16T14:42:04.591Z,68.28
2022-11-16T14:44:57.824Z,69.77
2022-11-16T14:47:43.415Z,69.75
2022-11-16T14:50:28.310Z,71.04
2022-11-16T14:53:17.773Z,72.18
2022-11-16T14:56:12.072Z,75.54
2022-11-16T14:59:02.365Z,76.65
2022-11-16T15:01:47.524Z,76.82
2022-11-16T15:04:32.767Z,76.61
2022-11-16T15:07:19.971Z,77.46
2022-11-16T15:10:05.979Z,79.00
2022-11-16T15:12:53.749Z,81.37
2022-11-16T15:15:38.718Z,83.36
2022-11-16T15:18:24.077Z,84.48
2022-11-16T15:21:22.279Z,86.60
2022-11-16T15:24:29.508Z,87.61
2022-11-16T15:27:33.643Z,88.26
2022-11-16T15:30:21.165Z,88.74
2022-11-16T15:33:17.978Z,88.67
2022-11-16T15:36:23.195Z,88.84
2022-11-16T15:39:16.413Z,87.86
2022-11-16T15:42:04.296Z,87.91
2022-11-16T15:44:50.769Z,88.83
2022-11-16T15:47:37.295Z,89.28
2022-11-16T15:50:23.477Z,90.27
2022-11-16T15:53:33.693Z,92.00
2022-11-16T15:56:21.528Z,92.50
2022-11-16T15:59:12.891Z,93.04
2022-11-16T16:01:58.284Z,93.64
2022-11-16T16:04:43.493Z,93.74
2022-11-16T16:07:39.776Z,93.84
2022-11-16T16:10:26.406Z,94.08
2022-11-16T16:13:24.762Z,94.67
2022-11-16T16:16:26.076Z,94.43
2022-11-16T16:19:34.732Z,94.65
2022-11-16T16:22:26.880Z,95.25
2022-11-16T16:25:32.039Z,96.19
2022-11-16T16:28:16.974Z,96.51
2022-11-16T16:31:02.304Z,96.97
2022-11-16T16:33:47.715Z,97.68
2022-11-16T16:36:32.656Z,98.04
2022-11-16T16:39:18.045Z,98.49
2022-11-16T16:42:03.405Z,98.77
2022-11-16T16:44:49.560Z,97.37
2022-11-16T16:47:34.897Z,97.54
2022-11-16T16:50:19.764Z,97.72
2022-11-16T16:53:05.284Z,97.14
2022-11-16T16:55:50.545Z,97.01
2022-11-16T16:58:35.477Z,96.71
2022-11-16T17:01:20.614Z,96.42
2022-11-16T17:04:06.315Z,96.26
2022-11-16T17:06:52.617Z,96.07
2022-11-16T17:09:37.852Z,96.53
2022-11-16T17:12:22.829Z,96.08
2022-11-16T17:15:08.546Z,96.42
2022-11-16T17:17:53.414Z,96.25
2022-11-16T17:20:41.375Z,95.91
2022-11-16T17:23:30.362Z,95.78
2022-11-16T17:26:15.888Z,95.77
2022-11-16T17:29:00.923Z,95.31
2022-11-16T17:31:47.354Z,95.89
2022-11-16T17:34:32.513Z,95.75
2022-11-16T17:37:17.555Z,95.58
2022-11-16T17:40:02.437Z,96.06
2022-11-16T17:42:47.211Z,96.19
2022-11-16T17:45:32.256Z,95.79
2022-11-16T17:48:17.201Z,95.96
2022-11-16T17:51:02.786Z,96.49
2022-11-16T17:53:48.438Z,96.81
2022-11-16T17:56:33.860Z,96.40
2022-11-16T17:59:18.689Z,97.13
2022-11-16T18:02:03.686Z,97.88
2022-11-16T18:04:51.231Z,98.24
2022-11-16T18:07:36.768Z,98.37
2022-11-16T18:10:22.283Z,98.63
2022-11-16T18:13:07.584Z,98.38
2022-11-16T18:15:52.627Z,98.94
2022-11-16T18:18:38.434Z,98.98
2022-11-16T18:21:23.717Z,98.88
2022-11-16T18:24:09.560Z,99.19
2022-11-16T18:26:54.552Z,99.05
2022-11-16T18:29:39.946Z,99.55
2022-11-16T18:32:24.914Z,99.51
2022-11-16T18:35:09.753Z,99.46
2022-11-16T18:37:54.655Z,99.33
2022-11-16T18:40:40.555Z,99.98
2022-11-16T18:43:25.505Z,99.34
2022-11-16T18:46:10.455Z,99.92
2022-11-16T18:48:56.079Z,100.00
2022-11-16T18:51:41.487Z,100.00
2022-11-16T18:54:26.360Z,100.00
2022-11-16T18:57:11.466Z,100.00
2022-11-16T18:59:56.210Z,100.00
2022-11-16T19:02:41.179Z,100.00
2022-11-16T19:05:25.973Z,100.00
2022-11-16T19:08:10.887Z,100.00
2022-11-16T19:10:56.356Z,100.00
2022-11-16T19:13:43.097Z,100.00
2022-11-16T19:16:28.515Z,100.00
2022-11-16T19:19:14.040Z,100.00
2022-11-16T19:21:59.259Z,100.00
2022-11-16T19:24:44.211Z,100.00
2022-11-16T19:27:30.179Z,100.00
2022-11-16T19:30:16.842Z,100.00
2022-11-16T19:33:01.830Z,100.00
2022-11-16T19:35:46.711Z,100.00
2022-11-16T19:38:31.606Z,100.00
2022-11-16T19:41:18.705Z,100.00
2022-11-16T19:44:03.841Z,100.00
2022-11-16T19:46:48.747Z,100.00
2022-11-16T19:49:33.742Z,100.00
2022-11-16T19:52:19.308Z,100.00
2022-11-16T19:55:04.930Z,100.00
2022-11-16T19:57:49.842Z,100.00
2022-11-16T20:00:35.042Z,100.00
2022-11-16T20:03:20.325Z,100.00
2022-11-16T20:06:17.549Z,100.00
2022-11-16T20:09:05.710Z,100.00
2022-11-16T20:11:50.599Z,100.00
2022-11-16T20:14:35.605Z,100.00
2022-11-16T20:17:20.882Z,100.00
2022-11-16T20:20:06.198Z,100.00
2022-11-16T20:22:51.212Z,100.00
2022-11-16T20:25:41.021Z,100.00
2022-11-16T20:28:26.053Z,100.00
2022-11-16T20:31:15.730Z,100.00
2022-11-16T20:34:04.179Z,100.00
2022-11-16T20:36:49.376Z,100.00
2022-11-16T20:39:34.616Z,100.00
2022-11-16T20:42:19.459Z,100.00
2022-11-16T20:45:05.474Z,100.00
2022-11-16T20:47:50.454Z,100.00
2022-11-16T20:50:35.386Z,100.00
2022-11-16T20:53:20.449Z,100.00
2022-11-16T20:56:06.289Z,100.00
2022-11-16T20:58:51.589Z,100.00
2022-11-16T21:01:36.910Z,100.00
2022-11-16T21:04:21.938Z,100.00
2022-11-16T21:07:07.267Z,100.00
2022-11-16T21:09:52.630Z,100.00
2022-11-16T21:12:42.529Z,100.00
2022-11-16T21:15:28.223Z,100.00
2022-11-16T21:18:13.415Z,100.00
2022-11-16T21:20:59.392Z,100.00
2022-11-16T21:23:44.641Z,100.00
2022-11-16T21:26:31.563Z,100.00
2022-11-16T21:29:16.580Z,100.00
2022-11-16T21:32:01.512Z,100.00
2022-11-16T21:34:46.803Z,100.00
2022-11-16T21:37:31.639Z,100.00
2022-11-16T21:40:16.635Z,100.00
2022-11-16T21:43:02.099Z,100.00
2022-11-16T21:45:48.121Z,100.00
2022-11-16T21:48:33.959Z,100.00
2022-11-16T21:51:21.340Z,100.00
2022-11-16T21:54:06.872Z,100.00
2022-11-16T21:56:51.818Z,100.00
2022-11-16T21:59:36.737Z,100.00
2022-11-16T22:02:21.601Z,100.00
2022-11-16T22:05:07.317Z,100.00
2022-11-16T22:07:52.460Z,100.00
2022-11-16T22:10:38.141Z,100.00
2022-11-16T22:13:23.252Z,100.00
2022-11-16T22:16:13.479Z,100.00
2022-11-16T22:18:58.745Z,100.00
2022-11-16T22:21:43.735Z,100.00
2022-11-16T22:24:28.598Z,100.00
2022-11-16T22:27:18.497Z,100.00
2022-11-16T22:30:03.475Z,100.00
2022-11-16T22:32:48.862Z,100.00
2022-11-16T22:35:33.828Z,100.00
2022-11-16T22:38:18.801Z,100.00
2022-11-16T22:41:04.331Z,100.00
2022-11-16T22:43:49.772Z,100.00
2022-11-16T22:46:34.685Z,100.00
2022-11-16T22:49:19.554Z,100.00
2022-11-16T22:52:04.589Z,100.00
2022-11-16T22:54:49.741Z,100.00
2022-11-16T22:57:34.813Z,100.00
2022-11-16T23:00:20.034Z,100.00
2022-11-16T23:03:06.203Z,100.00
2022-11-16T23:05:51.463Z,100.00
2022-11-16T23:08:36.603Z,100.00
2022-11-16T23:11:23.812Z,100.00
2022-11-16T23:14:16.975Z,100.00
2022-11-16T23:17:03.284Z,100.00
2022-11-16T23:19:48.240Z,100.00
2022-11-16T23:22:33.661Z,100.00
2022-11-16T23:25:18.577Z,100.00
2022-11-16T23:28:15.366Z,100.00
2022-11-16T23:31:00.401Z,100.00
2022-11-16T23:33:45.619Z,100.00
2022-11-16T23:36:30.492Z,100.00
2022-11-16T23:39:15.505Z,100.00
2022-11-16T23:42:00.749Z,100.00
2022-11-16T23:44:45.778Z,100.00
2022-11-16T23:47:30.706Z,100.00
2022-11-16T23:50:15.763Z,100.00
2022-11-16T23:53:00.653Z,100.00
2022-11-16T23:55:45.444Z,100.00
2022-11-16T23:58:30.414Z,100.00
